Time;durP1;ratioP1;P1;durP2;ratioP2;P2;SDS_P1;SDS_P2;PMS_P1;PMS_P2;Temp;Humidity;BMP_temperature;BMP_pressure;BME280_temperature;BME280_humidity;BME280_pressure;Samples;Min_cycle;Max_cycle;Signal;HPM_P1;HPM_P2
2021/03/23 00:01:47;;;;;;;15.57;7.30;;;2.20;99.90;;;;;;8296929;28;20048;-65
2021/03/23 00:05:47;;;;;;;14.38;6.82;;;2.20;99.90;;;;;;8353170;28;20398;-66
2021/03/23 00:09:48;;;;;;;10.80;6.05;;;2.30;99.90;;;;;;8362751;28;20033;-66
2021/03/23 00:13:49;;;;;;;14.07;7.20;;;2.20;99.90;;;;;;8361958;28;20064;-66
2021/03/23 00:17:51;;;;;;;14.27;5.85;;;1.90;99.90;;;;;;8361673;28;20368;-65
2021/03/23 00:21:51;;;;;;;13.00;6.80;;;2.10;99.90;;;;;;8303025;28;20057;-66
2021/03/23 00:25:52;;;;;;;17.80;7.78;;;2.00;99.90;;;;;;8296508;28;20452;-66
2021/03/23 00:29:53;;;;;;;16.70;6.70;;;1.70;99.90;;;;;;8296568;28;20029;-65
2021/03/23 00:33:54;;;;;;;17.23;7.13;;;1.60;99.90;;;;;;8320800;28;20036;-66
2021/03/23 00:37:59;;;;;;;15.07;7.28;;;1.50;99.90;;;;;;8361973;28;20033;-66
2021/03/23 00:42:00;;;;;;;13.15;6.70;;;1.30;99.90;;;;;;8361782;28;20116;-66
2021/03/23 00:46:00;;;;;;;13.52;7.03;;;1.60;99.90;;;;;;8361387;28;20020;-65
2021/03/23 00:50:01;;;;;;;17.05;7.35;;;1.60;99.90;;;;;;8361688;28;20025;-66
2021/03/23 00:54:02;;;;;;;16.35;5.80;;;1.50;99.90;;;;;;8338944;28;20041;-66
2021/03/23 00:58:03;;;;;;;12.85;6.40;;;1.60;99.90;;;;;;8310696;28;20075;-66
2021/03/23 01:02:04;;;;;;;13.52;6.15;;;1.60;99.90;;;;;;8327919;28;20547;-66
2021/03/23 01:06:04;;;;;;;15.23;7.40;;;1.70;99.90;;;;;;8327971;28;20496;-66
2021/03/23 01:10:07;;;;;;;14.95;7.43;;;1.60;99.90;;;;;;8328061;28;20072;-66
2021/03/23 01:14:08;;;;;;;13.15;7.25;;;1.70;99.90;;;;;;8309914;28;20033;-66
2021/03/23 01:18:08;;;;;;;13.00;6.40;;;1.50;99.90;;;;;;8327565;28;20052;-66
2021/03/23 01:22:09;;;;;;;14.35;6.88;;;1.50;99.90;;;;;;8309785;28;20029;-66
2021/03/23 01:26:10;;;;;;;13.45;7.20;;;1.60;99.90;;;;;;8326452;28;20430;-66
2021/03/23 01:30:11;;;;;;;15.23;7.35;;;1.50;99.90;;;;;;8309738;28;20502;-66
2021/03/23 01:34:11;;;;;;;13.32;6.78;;;1.60;99.90;;;;;;8342012;28;20035;-66
2021/03/23 01:38:12;;;;;;;15.45;6.65;;;1.70;99.90;;;;;;8360472;28;20498;-66
2021/03/23 01:42:14;;;;;;;11.27;6.70;;;1.90;99.90;;;;;;8359936;28;20090;-66
2021/03/23 01:46:43;;;;;;;12.30;6.38;;;1.80;99.90;;;;;;8342222;28;20025;-66
2021/03/23 01:50:50;;;;;;;12.68;6.38;;;1.70;99.90;;;;;;8360122;28;20028;-66
2021/03/23 01:55:02;;;;;;;10.93;6.63;;;1.50;99.90;;;;;;8359804;28;20075;-66
2021/03/23 01:59:05;;;;;;;11.10;6.35;;;1.60;99.90;;;;;;8303843;28;20099;-67
2021/03/23 02:03:07;;;;;;;9.77;6.35;;;1.70;99.90;;;;;;8305778;28;20033;-66
2021/03/23 02:07:07;;;;;;;13.70;6.75;;;1.50;99.90;;;;;;8359777;28;20033;-66
2021/03/23 02:11:08;;;;;;;13.70;7.18;;;1.40;99.90;;;;;;8359929;28;20032;-66
2021/03/23 02:15:09;;;;;;;14.85;6.47;;;1.30;99.90;;;;;;8358995;28;20040;-66
2021/03/23 02:19:12;;;;;;;15.23;7.25;;;1.20;99.90;;;;;;8359351;28;20056;-66
2021/03/23 02:23:24;;;;;;;15.65;6.60;;;1.20;99.90;;;;;;8341486;28;20057;-66
2021/03/23 02:27:26;;;;;;;13.10;6.88;;;1.20;99.90;;;;;;8359428;28;20505;-66
2021/03/23 02:31:34;;;;;;;12.57;6.80;;;1.40;99.90;;;;;;8297990;28;20037;-66
2021/03/23 02:35:36;;;;;;;14.00;6.57;;;1.30;99.90;;;;;;8346204;28;20052;-66
2021/03/23 02:39:38;;;;;;;13.32;6.70;;;1.40;99.90;;;;;;8344906;28;20049;-66
2021/03/23 02:43:38;;;;;;;15.15;7.43;;;1.30;99.90;;;;;;8365166;28;20028;-66
2021/03/23 02:47:39;;;;;;;12.68;7.00;;;1.10;99.90;;;;;;8365325;28;20029;-66
2021/03/23 02:51:39;;;;;;;12.55;6.90;;;1.10;99.90;;;;;;8365285;28;20047;-66
2021/03/23 02:55:40;;;;;;;19.13;7.30;;;1.30;99.90;;;;;;8347094;28;20021;-66
2021/03/23 02:59:40;;;;;;;322.17;293.35;;;1.20;99.90;;;;;;8364906;28;20025;-66
2021/03/23 03:03:42;;;;;;;13.20;6.53;;;1.20;99.90;;;;;;8322568;28;20040;-66
2021/03/23 03:07:43;;;;;;;13.48;7.03;;;1.10;99.90;;;;;;8346725;28;20029;-66
2021/03/23 03:11:43;;;;;;;16.10;6.95;;;1.00;99.90;;;;;;8346763;28;20053;-66
2021/03/23 03:15:44;;;;;;;655.15;595.63;;;1.20;99.90;;;;;;8346430;28;20021;-66
2021/03/23 03:19:44;;;;;;;15.35;7.40;;;1.30;99.90;;;;;;8364266;28;20025;-66
2021/03/23 03:23:45;;;;;;;14.77;6.95;;;1.20;99.90;;;;;;8364058;28;20053;-66
2021/03/23 03:27:46;;;;;;;16.02;7.15;;;1.10;99.90;;;;;;8346217;28;20048;-66
2021/03/23 03:31:47;;;;;;;14.35;6.43;;;1.30;99.90;;;;;;8346110;28;20032;-66
2021/03/23 03:35:49;;;;;;;11.70;6.50;;;1.20;99.90;;;;;;8356606;28;20056;-66
2021/03/23 03:39:49;;;;;;;15.77;7.00;;;1.10;99.90;;;;;;8363890;28;20479;-66
2021/03/23 03:43:50;;;;;;;13.57;6.90;;;1.10;99.90;;;;;;8363505;28;20079;-66
2021/03/23 03:47:54;;;;;;;17.92;8.00;;;1.00;99.90;;;;;;8363577;28;20486;-66
2021/03/23 03:51:55;;;;;;;12.68;7.13;;;1.20;99.90;;;;;;8321951;28;20029;-66
2021/03/23 03:55:56;;;;;;;16.95;8.38;;;1.10;99.90;;;;;;8311906;28;20032;-66
2021/03/23 03:59:56;;;;;;;13.63;7.40;;;1.10;99.90;;;;;;8329590;28;20108;-66
2021/03/23 04:03:57;;;;;;;17.65;7.93;;;1.10;99.90;;;;;;8342904;28;20028;-66
2021/03/23 04:07:57;;;;;;;20.05;7.68;;;1.10;99.90;;;;;;8312301;28;20026;-66
2021/03/23 04:11:58;;;;;;;14.30;7.63;;;0.90;99.90;;;;;;8329833;28;20033;-66
2021/03/23 04:15:59;;;;;;;15.27;8.57;;;1.00;99.90;;;;;;8329594;28;20037;-66
2021/03/23 04:20:01;;;;;;;15.68;7.90;;;0.90;99.90;;;;;;8327945;28;20025;-66
2021/03/23 04:24:02;;;;;;;17.88;8.40;;;1.00;99.90;;;;;;8310935;28;20108;-66
2021/03/23 04:28:02;;;;;;;16.58;7.82;;;1.20;99.90;;;;;;8328792;28;20072;-66
2021/03/23 04:32:03;;;;;;;15.55;8.38;;;1.20;99.90;;;;;;8328075;28;20720;-66
2021/03/23 04:36:07;;;;;;;16.80;8.30;;;1.20;99.90;;;;;;8328757;28;20033;-66
2021/03/23 04:40:09;;;;;;;18.73;8.35;;;1.00;99.90;;;;;;8327810;28;20017;-66
2021/03/23 04:44:09;;;;;;;19.08;9.27;;;0.70;99.90;;;;;;8327394;28;20177;-66
2021/03/23 04:48:10;;;;;;;18.23;8.65;;;0.40;99.90;;;;;;8328247;28;20079;-66
2021/03/23 04:52:10;;;;;;;16.10;8.57;;;0.30;99.90;;;;;;8328276;28;20499;-66
2021/03/23 04:56:22;;;;;;;16.45;9.23;;;0.30;99.90;;;;;;8310832;28;20137;-66
2021/03/23 05:00:23;;;;;;;19.50;9.00;;;0.40;99.90;;;;;;8327974;28;20040;-66
2021/03/23 05:04:23;;;;;;;16.42;8.80;;;0.60;99.90;;;;;;8327942;28;20476;-66
2021/03/23 05:08:24;;;;;;;19.60;10.05;;;0.50;99.90;;;;;;8327433;28;20033;-66
2021/03/23 05:12:25;;;;;;;17.77;9.52;;;0.20;99.90;;;;;;8294293;28;20128;-66
2021/03/23 05:16:27;;;;;;;18.05;9.38;;;0.20;99.90;;;;;;8277960;28;20045;-66
2021/03/23 05:20:27;;;;;;;19.08;9.63;;;0.00;99.90;;;;;;8295479;28;20026;-67
2021/03/23 05:24:28;;;;;;;25.42;12.40;;;0.10;99.90;;;;;;8295078;28;20032;-66
2021/03/23 05:28:29;;;;;;;20.05;10.48;;;0.00;99.90;;;;;;8299122;28;20029;-66
2021/03/23 05:32:29;;;;;;;18.90;10.15;;;0.80;99.90;;;;;;8327023;28;20037;-66
2021/03/23 05:36:30;;;;;;;19.52;9.32;;;0.90;99.90;;;;;;8327664;28;20395;-66
2021/03/23 05:40:39;;;;;;;16.98;9.45;;;0.80;99.90;;;;;;8326392;28;20029;-66
2021/03/23 05:44:52;;;;;;;19.97;10.40;;;0.90;99.90;;;;;;8326589;28;20072;-66
2021/03/23 05:49:11;;;;;;;17.63;9.05;;;0.80;99.90;;;;;;8327179;28;20033;-66
2021/03/23 05:53:33;;;;;;;23.05;10.13;;;1.10;99.90;;;;;;8308563;28;20395;-66
2021/03/23 05:57:41;;;;;;;23.05;12.73;;;1.30;99.90;;;;;;8325555;28;20112;-66
2021/03/23 06:01:50;;;;;;;33.13;16.23;;;1.50;99.90;;;;;;8325325;28;20033;-66
2021/03/23 06:06:03;;;;;;;25.00;13.07;;;1.50;99.90;;;;;;8332010;28;20442;-66
2021/03/23 06:10:15;;;;;;;24.15;12.45;;;1.60;99.90;;;;;;8327563;28;20033;-67
2021/03/23 06:14:43;;;;;;;24.05;12.43;;;1.70;99.90;;;;;;8313812;28;20110;-66
2021/03/23 06:19:18;;;;;;;25.20;12.80;;;1.80;99.90;;;;;;8323507;28;20034;-66
2021/03/23 06:23:38;;;;;;;24.08;12.57;;;2.00;99.90;;;;;;8327317;28;20075;-66
2021/03/23 06:27:47;;;;;;;;;;;2.10;99.90;;;;;;8334658;28;20049;-69
2021/03/23 06:32:13;;;;;;;23.23;11.43;;;2.30;99.90;;;;;;8328829;28;20411;-69
2021/03/23 06:36:29;;;;;;;43.50;18.35;;;2.60;99.90;;;;;;8333913;28;20099;-68
2021/03/23 06:40:33;;;;;;;35.88;16.23;;;2.60;99.90;;;;;;8328403;28;20060;-68
2021/03/23 06:44:37;;;;;;;18.90;10.45;;;2.70;99.90;;;;;;8330820;28;20029;-68
2021/03/23 06:48:37;;;;;;;20.08;10.75;;;2.90;99.90;;;;;;8331228;28;20029;-68
2021/03/23 06:52:38;;;;;;;20.08;10.75;;;2.80;99.90;;;;;;8336068;28;20541;-68
2021/03/23 06:56:38;;;;;;;21.08;10.93;;;3.10;99.90;;;;;;8325716;28;20468;-64
2021/03/23 07:00:39;;;;;;;21.02;12.10;;;3.00;99.90;;;;;;8318621;28;20013;-63
2021/03/23 07:04:40;;;;;;;23.05;12.13;;;3.00;99.90;;;;;;8332126;28;20495;-65
2021/03/23 07:08:41;;;;;;;22.65;12.93;;;3.30;99.90;;;;;;8328041;28;20035;-65
2021/03/23 07:12:45;;;;;;;28.67;14.45;;;3.70;99.90;;;;;;8329800;28;20029;-64
2021/03/23 07:16:48;;;;;;;29.73;15.38;;;4.00;99.90;;;;;;8330818;28;20103;-65
2021/03/23 07:20:50;;;;;;;31.80;15.38;;;4.20;99.90;;;;;;8330697;28;20127;-64
2021/03/23 07:24:57;;;;;;;27.90;13.85;;;4.60;99.90;;;;;;8310682;28;20033;-64
2021/03/23 07:29:28;;;;;;;23.88;13.07;;;4.60;99.90;;;;;;8330216;28;20033;-64
2021/03/23 07:33:50;;;;;;;21.88;13.02;;;4.50;99.90;;;;;;8330569;28;20053;-63
2021/03/23 07:38:14;;;;;;;22.25;11.77;;;4.80;99.90;;;;;;8330608;28;20097;-64
2021/03/23 07:42:36;;;;;;;26.42;13.50;;;5.30;99.90;;;;;;8330919;28;20029;-64
2021/03/23 07:46:47;;;;;;;26.63;13.40;;;5.40;99.90;;;;;;8330672;28;20017;-64
2021/03/23 07:50:54;;;;;;;26.48;13.73;;;5.50;99.90;;;;;;8305086;28;20045;-64
2021/03/23 07:55:01;;;;;;;25.15;12.80;;;5.50;99.90;;;;;;8316692;28;20041;-64
2021/03/23 07:59:25;;;;;;;26.60;13.07;;;5.90;99.90;;;;;;8330634;28;20553;-65
2021/03/23 08:03:47;;;;;;;26.65;12.80;;;5.80;99.90;;;;;;8338666;28;20037;-65
2021/03/23 08:08:16;;;;;;;22.63;12.05;;;5.80;99.90;;;;;;8325455;28;20034;-65
2021/03/23 08:12:44;;;;;;;21.35;9.65;;;6.10;99.90;;;;;;8297176;28;20464;-63
2021/03/23 08:17:12;;;;;;;26.05;12.75;;;6.30;99.90;;;;;;8279667;28;20472;-64
2021/03/23 08:21:51;;;;;;;26.02;13.77;;;6.40;99.90;;;;;;8296998;28;20021;-64
2021/03/23 08:25:56;;;;;;;26.40;13.55;;;6.50;99.90;;;;;;8302736;28;20033;-65
2021/03/23 08:30:34;;;;;;;23.88;13.95;;;6.80;99.90;;;;;;8329698;28;20040;-65
2021/03/23 08:35:12;;;;;;;27.13;13.38;;;6.70;99.90;;;;;;8329080;28;20108;-65
2021/03/23 08:39:27;;;;;;;24.38;13.05;;;6.60;99.90;;;;;;8319845;28;20400;-66
2021/03/23 08:43:39;;;;;;;22.65;12.40;;;6.80;99.90;;;;;;8314527;28;20025;-65
2021/03/23 08:47:43;;;;;;;26.98;13.02;;;7.20;99.90;;;;;;8326673;28;20072;-64
2021/03/23 08:51:49;;;;;;;18.98;10.57;;;7.20;99.90;;;;;;8319763;28;20033;-64
2021/03/23 08:55:50;;;;;;;23.35;12.85;;;6.90;99.90;;;;;;8316588;28;20458;-65
2021/03/23 08:59:53;;;;;;;25.98;13.35;;;7.30;99.90;;;;;;8290760;28;20029;-65
2021/03/23 09:04:03;;;;;;;24.67;12.80;;;8.20;99.90;;;;;;8327856;28;20030;-65
2021/03/23 09:08:32;;;;;;;22.73;11.82;;;8.70;99.90;;;;;;8326148;28;20053;-66
2021/03/23 09:12:42;;;;;;;19.02;11.05;;;8.80;99.90;;;;;;8326679;28;20025;-65
2021/03/23 09:16:53;;;;;;;19.58;11.38;;;9.10;99.90;;;;;;8307482;28;20030;-65
2021/03/23 09:21:02;;;;;;;18.92;11.32;;;8.90;99.90;;;;;;8325819;28;20087;-65
2021/03/23 09:25:21;;;;;;;20.70;11.90;;;9.10;99.90;;;;;;8323129;28;20029;-67
2021/03/23 09:29:31;;;;;;;19.98;10.75;;;9.30;99.90;;;;;;8320655;28;20033;-65
2021/03/23 09:33:41;;;;;;;16.75;8.40;;;9.50;99.90;;;;;;8325410;28;20447;-65
2021/03/23 09:38:18;;;;;;;18.70;9.50;;;9.30;99.90;;;;;;8327399;28;20021;-64
2021/03/23 09:42:35;;;;;;;17.05;9.95;;;9.20;99.90;;;;;;8327120;28;20013;-66
2021/03/23 09:46:45;;;;;;;19.52;10.35;;;9.00;99.90;;;;;;8308982;28;20035;-64
2021/03/23 09:50:52;;;;;;;18.47;11.13;;;9.30;99.90;;;;;;8326819;28;20096;-64
2021/03/23 09:54:58;;;;;;;20.77;11.93;;;9.50;99.90;;;;;;8326434;28;20040;-65
2021/03/23 09:59:10;;;;;;;20.23;12.18;;;10.20;99.90;;;;;;8320386;28;20044;-65
2021/03/23 10:03:29;;;;;;;20.63;12.32;;;11.10;99.90;;;;;;8300201;28;20041;-65
2021/03/23 10:07:38;;;;;;;20.35;12.25;;;11.50;99.90;;;;;;8326740;28;20461;-65
2021/03/23 10:11:44;;;;;;;19.75;11.30;;;11.40;99.90;;;;;;8308603;28;20026;-65
2021/03/23 10:15:45;;;;;;;19.60;11.52;;;11.00;99.90;;;;;;8322947;28;20696;-65
2021/03/23 10:19:53;;;;;;;26.67;11.25;;;10.40;99.90;;;;;;8325922;28;20026;-62
2021/03/23 10:23:57;;;;;;;18.88;11.00;;;10.30;99.90;;;;;;8325666;28;20030;-64
2021/03/23 10:28:03;;;;;;;16.00;8.77;;;10.40;99.90;;;;;;8299885;28;20033;-65
2021/03/23 10:32:19;;;;;;;13.38;7.55;;;10.30;99.90;;;;;;8322477;28;20034;-65
2021/03/23 10:36:20;;;;;;;15.50;6.80;;;10.20;99.90;;;;;;8329810;28;20021;-65
2021/03/23 10:40:37;;;;;;;13.18;7.15;;;10.30;99.50;;;;;;8322910;28;20105;-65
2021/03/23 10:44:37;;;;;;;17.55;9.45;;;10.30;99.90;;;;;;8312256;28;20029;-65
2021/03/23 10:48:38;;;;;;;16.58;9.55;;;10.60;99.90;;;;;;8326215;28;20033;-65
2021/03/23 10:52:39;;;;;;;16.25;9.35;;;11.60;99.90;;;;;;8324501;28;20037;-65
2021/03/23 10:56:46;;;;;;;19.38;9.93;;;10.90;99.90;;;;;;8325240;28;20053;-65
2021/03/23 11:00:50;;;;;;;17.90;8.32;;;9.60;99.90;;;;;;8316489;28;20017;-66
2021/03/23 11:05:16;;;;;;;13.55;8.00;;;9.30;99.90;;;;;;8330867;28;20029;-65
2021/03/23 11:09:18;;;;;;;14.20;8.43;;;8.50;99.90;;;;;;8335096;28;20039;-65
2021/03/23 11:13:19;;;;;;;12.52;7.82;;;8.30;99.90;;;;;;8313102;28;20030;-65
2021/03/23 11:17:22;;;;;;;18.23;8.57;;;8.30;99.90;;;;;;8328264;28;20430;-66
2021/03/23 11:21:23;;;;;;;14.65;8.77;;;8.40;99.90;;;;;;8326246;28;20021;-65
2021/03/23 11:25:26;;;;;;;16.20;8.00;;;8.60;99.90;;;;;;8330123;28;20032;-64
2021/03/23 11:29:27;;;;;;;16.00;7.93;;;8.80;99.90;;;;;;8331707;28;20022;-65
2021/03/23 11:33:30;;;;;;;16.25;7.10;;;8.80;99.90;;;;;;8328897;28;20040;-65
2021/03/23 11:37:31;;;;;;;11.10;6.45;;;8.60;99.90;;;;;;8329477;28;20044;-65
2021/03/23 11:41:36;;;;;;;12.60;7.30;;;8.90;99.90;;;;;;8329975;28;20099;-65
2021/03/23 11:45:42;;;;;;;10.70;5.88;;;9.50;99.90;;;;;;8321672;28;20022;-64
2021/03/23 11:50:04;;;;;;;10.93;5.90;;;10.00;99.90;;;;;;8329576;28;20134;-65
2021/03/23 11:54:05;;;;;;;12.65;6.05;;;10.10;99.70;;;;;;8329010;28;20026;-65
2021/03/23 11:58:06;;;;;;;9.77;6.05;;;10.20;99.10;;;;;;8325995;28;20034;-65
2021/03/23 12:02:07;;;;;;;11.27;5.97;;;10.70;97.40;;;;;;8310520;28;20033;-65
2021/03/23 12:06:08;;;;;;;9.23;5.57;;;10.70;96.00;;;;;;8326242;28;20038;-65
2021/03/23 12:10:16;;;;;;;9.30;5.50;;;10.30;96.50;;;;;;8323312;28;20035;-65
2021/03/23 12:14:34;;;;;;;8.52;5.22;;;10.20;95.80;;;;;;8317166;28;20071;-65
2021/03/23 12:18:35;;;;;;;8.38;5.28;;;10.00;95.60;;;;;;8325257;28;20032;-65
2021/03/23 12:22:36;;;;;;;11.50;5.55;;;10.10;95.70;;;;;;8327489;28;20037;-65
2021/03/23 12:26:37;;;;;;;8.65;5.30;;;10.40;95.30;;;;;;8328585;28;20680;-65
2021/03/23 12:30:37;;;;;;;8.20;5.53;;;10.70;93.50;;;;;;8331566;28;20488;-66
2021/03/23 12:34:38;;;;;;;9.32;5.72;;;10.30;93.50;;;;;;8335970;28;20025;-65
2021/03/23 12:38:43;;;;;;;8.68;4.85;;;10.40;93.30;;;;;;8317047;28;20048;-64
2021/03/23 12:42:43;;;;;;;8.88;4.93;;;10.50;92.50;;;;;;8328146;28;20025;-64
2021/03/23 12:46:44;;;;;;;9.77;5.75;;;10.30;93.60;;;;;;8329420;28;20503;-65
2021/03/23 12:50:45;;;;;;;10.93;5.97;;;10.60;94.40;;;;;;8318305;28;20389;-65
2021/03/23 12:54:53;;;;;;;11.48;5.15;;;11.00;93.70;;;;;;8326182;28;20029;-64
2021/03/23 12:58:53;;;;;;;8.93;5.53;;;11.40;93.70;;;;;;8307862;28;20029;-65
2021/03/23 13:02:54;;;;;;;10.60;5.90;;;11.20;92.80;;;;;;8327670;28;20044;-65
2021/03/23 13:06:56;;;;;;;10.00;5.63;;;11.50;92.50;;;;;;8326361;28;20050;-66
2021/03/23 13:11:01;;;;;;;9.82;5.53;;;12.00;92.10;;;;;;8326623;28;20021;-65
2021/03/23 13:15:02;;;;;;;7.70;5.05;;;12.00;89.80;;;;;;8326975;28;20040;-65
2021/03/23 13:19:04;;;;;;;8.45;4.95;;;12.50;91.20;;;;;;8327865;28;20029;-65
2021/03/23 13:23:06;;;;;;;9.05;5.25;;;12.90;90.00;;;;;;8297272;28;20033;-65
2021/03/23 13:27:25;;;;;;;10.95;5.65;;;13.10;89.00;;;;;;8308846;28;20159;-65
2021/03/23 13:31:34;;;;;;;7.75;4.88;;;13.10;88.50;;;;;;8326078;28;20159;-65
2021/03/23 13:35:35;;;;;;;6.28;4.75;;;13.10;87.10;;;;;;8327099;28;20108;-65
2021/03/23 13:39:43;;;;;;;8.13;4.60;;;12.70;87.50;;;;;;8325651;28;20522;-65
2021/03/23 13:43:45;;;;;;;7.65;4.38;;;12.20;89.30;;;;;;8321000;28;20541;-66
2021/03/23 13:47:48;;;;;;;7.05;4.95;;;12.00;90.10;;;;;;8325396;28;20026;-66
2021/03/23 13:51:51;;;;;;;6.63;4.60;;;12.00;90.30;;;;;;8326434;28;20096;-66
2021/03/23 13:55:52;;;;;;;9.02;5.13;;;12.00;88.00;;;;;;8316936;28;20049;-66
2021/03/23 13:59:53;;;;;;;8.15;4.57;;;11.70;85.90;;;;;;8297679;28;20072;-65
2021/03/23 14:03:53;;;;;;;8.55;5.00;;;11.70;86.50;;;;;;8317626;28;20030;-66
2021/03/23 14:07:54;;;;;;;10.85;6.32;;;10.90;90.30;;;;;;8337052;28;20047;-65
2021/03/23 14:11:57;;;;;;;10.25;5.80;;;9.70;94.10;;;;;;8302476;28;20034;-65
2021/03/23 14:15:58;;;;;;;10.65;5.97;;;9.60;96.50;;;;;;8320399;28;20049;-65
2021/03/23 14:20:01;;;;;;;8.25;5.50;;;9.70;93.70;;;;;;8294000;28;20106;-66
2021/03/23 14:24:02;;;;;;;8.98;5.63;;;10.70;95.50;;;;;;8272874;28;20033;-66
2021/03/23 14:28:05;;;;;;;9.43;5.35;;;11.80;91.30;;;;;;8272601;28;20037;-66
2021/03/23 14:32:06;;;;;;;9.52;5.20;;;13.00;90.50;;;;;;8291283;28;20088;-66
2021/03/23 14:36:07;;;;;;;11.70;5.97;;;13.20;84.30;;;;;;8334687;28;20036;-66
2021/03/23 14:40:19;;;;;;;9.35;5.78;;;13.60;86.90;;;;;;8320993;28;20406;-66
2021/03/23 14:44:20;;;;;;;10.35;5.25;;;13.90;86.10;;;;;;8308354;28;20048;-66
2021/03/23 14:48:24;;;;;;;10.40;5.25;;;14.50;83.60;;;;;;8316721;28;20045;-66
2021/03/23 14:52:27;;;;;;;9.13;5.43;;;14.60;80.80;;;;;;8306874;28;20480;-66
2021/03/23 14:56:31;;;;;;;9.48;5.97;;;14.20;76.70;;;;;;8328971;28;20009;-66
2021/03/23 15:00:38;;;;;;;10.55;6.07;;;14.10;81.90;;;;;;8331650;28;20112;-65
2021/03/23 15:04:40;;;;;;;8.70;5.97;;;13.60;77.00;;;;;;8313215;28;20029;-65
2021/03/23 15:08:49;;;;;;;9.93;5.90;;;14.00;79.60;;;;;;8313283;28;20025;-66
2021/03/23 15:12:49;;;;;;;9.30;6.15;;;14.20;79.40;;;;;;8327530;28;20465;-66
2021/03/23 15:16:50;;;;;;;10.73;6.15;;;14.30;78.80;;;;;;8315573;28;20022;-65
2021/03/23 15:20:53;;;;;;;10.18;5.90;;;13.00;78.80;;;;;;8340850;28;20644;-65
2021/03/23 15:24:56;;;;;;;10.93;6.10;;;13.40;77.60;;;;;;8324216;28;20026;-65
2021/03/23 15:28:58;;;;;;;9.98;6.13;;;12.80;77.60;;;;;;8298380;28;20022;-66
2021/03/23 15:32:59;;;;;;;8.68;5.55;;;12.70;83.90;;;;;;8324466;28;20035;-66
2021/03/23 15:37:02;;;;;;;10.05;5.72;;;13.20;81.80;;;;;;8331200;28;20029;-65
2021/03/23 15:41:03;;;;;;;10.63;6.20;;;12.80;79.70;;;;;;8313255;28;20033;-65
2021/03/23 15:45:12;;;;;;;12.63;6.28;;;12.40;84.80;;;;;;8329497;28;20561;-65
2021/03/23 15:49:13;;;;;;;10.25;6.47;;;12.20;95.10;;;;;;8328998;28;20041;-66
2021/03/23 15:53:33;;;;;;;11.63;6.65;;;11.40;87.70;;;;;;8324253;28;20487;-66
2021/03/23 15:57:34;;;;;;;11.87;6.20;;;11.60;97.20;;;;;;8331638;28;20084;-66
2021/03/23 16:01:34;;;;;;;11.80;6.40;;;12.00;96.30;;;;;;8324155;28;20451;-65
2021/03/23 16:05:35;;;;;;;13.13;7.47;;;12.20;99.40;;;;;;8321384;28;20041;-65
2021/03/23 16:09:36;;;;;;;12.18;6.00;;;12.20;96.70;;;;;;8326252;28;20029;-65
2021/03/23 16:13:36;;;;;;;15.27;8.38;;;12.80;94.40;;;;;;8327992;28;20033;-66
2021/03/23 16:17:38;;;;;;;9.45;5.93;;;13.40;95.60;;;;;;8326599;28;20033;-65
2021/03/23 16:21:40;;;;;;;14.27;8.23;;;13.90;92.70;;;;;;8313571;28;20384;-65
2021/03/23 16:25:40;;;;;;;25.55;15.52;;;14.00;92.80;;;;;;8330529;28;20108;-66
2021/03/23 16:29:41;;;;;;;12.65;6.20;;;14.40;90.50;;;;;;8306226;28;20048;-65
2021/03/23 16:33:41;;;;;;;8.57;5.40;;;14.60;87.10;;;;;;8333904;28;20764;-66
2021/03/23 16:37:42;;;;;;;9.00;5.50;;;15.40;86.20;;;;;;8323007;28;20083;-65
2021/03/23 16:41:44;;;;;;;8.20;5.85;;;16.20;92.00;;;;;;8327990;28;20021;-66
2021/03/23 16:45:45;;;;;;;7.50;5.20;;;16.60;76.10;;;;;;8315901;28;20060;-66
2021/03/23 16:49:46;;;;;;;10.25;5.50;;;16.20;79.80;;;;;;8324797;28;20379;-66
2021/03/23 16:53:47;;;;;;;12.00;7.63;;;15.50;81.00;;;;;;8328298;28;20108;-66
2021/03/23 16:57:47;;;;;;;10.00;5.85;;;14.60;81.50;;;;;;8331449;28;20070;-65
2021/03/23 17:01:48;;;;;;;10.23;5.85;;;13.00;88.10;;;;;;8335665;28;20055;-66
2021/03/23 17:05:52;;;;;;;11.52;6.15;;;11.40;90.70;;;;;;8323046;28;20033;-66
2021/03/23 17:09:52;;;;;;;10.38;5.95;;;10.60;93.00;;;;;;8299841;28;20021;-66
2021/03/23 17:13:53;;;;;;;11.45;6.22;;;10.20;94.40;;;;;;8318244;28;20061;-66
2021/03/23 17:17:54;;;;;;;9.88;5.72;;;9.30;96.50;;;;;;8307768;28;20026;-66
2021/03/23 17:21:54;;;;;;;11.38;5.90;;;8.10;96.80;;;;;;8308616;28;20025;-65
2021/03/23 17:25:55;;;;;;;13.98;5.63;;;7.20;98.30;;;;;;8326441;28;20390;-65
2021/03/23 17:29:57;;;;;;;12.13;5.53;;;6.40;99.90;;;;;;8309773;28;20025;-65
2021/03/23 17:33:57;;;;;;;10.68;6.28;;;5.60;99.90;;;;;;8339987;28;20055;-65
2021/03/23 17:37:59;;;;;;;9.88;5.40;;;5.50;99.90;;;;;;8331298;28;20041;-65
2021/03/23 17:42:00;;;;;;;8.60;4.82;;;5.70;99.90;;;;;;8320837;28;20107;-65
2021/03/23 17:46:02;;;;;;;10.73;5.47;;;5.50;99.90;;;;;;8322206;28;20025;-64
2021/03/23 17:50:03;;;;;;;9.98;5.53;;;6.10;99.90;;;;;;8327205;28;20021;-65
2021/03/23 17:54:04;;;;;;;10.10;5.47;;;6.60;99.90;;;;;;8312599;28;20030;-65
2021/03/23 17:58:05;;;;;;;9.32;4.78;;;7.10;99.90;;;;;;8291307;28;20083;-67
2021/03/23 18:02:06;;;;;;;10.15;5.07;;;6.90;99.90;;;;;;8318647;28;20026;-67
2021/03/23 18:06:07;;;;;;;12.27;5.88;;;7.70;99.90;;;;;;8323138;28;20040;-67
2021/03/23 18:10:08;;;;;;;11.30;5.45;;;7.00;99.90;;;;;;8307514;28;20029;-66
2021/03/23 18:14:09;;;;;;;9.50;4.78;;;6.90;99.90;;;;;;8323583;28;20033;-68
2021/03/23 18:18:10;;;;;;;10.93;5.35;;;6.80;99.90;;;;;;8326089;28;20021;-66
2021/03/23 18:22:10;;;;;;;20.33;10.77;;;6.00;99.90;;;;;;8327651;28;20487;-67
2021/03/23 18:26:11;;;;;;;15.68;8.50;;;5.10;99.90;;;;;;8334024;28;20037;-66
2021/03/23 18:30:13;;;;;;;17.92;7.80;;;4.50;99.90;;;;;;8317392;28;20029;-66
2021/03/23 18:34:15;;;;;;;28.00;13.70;;;4.10;99.90;;;;;;8327081;28;20021;-67
2021/03/23 18:38:21;;;;;;;34.10;17.38;;;3.80;99.90;;;;;;8308450;28;20438;-68
2021/03/23 18:42:23;;;;;;;21.00;9.65;;;3.30;99.90;;;;;;8325378;28;20021;-67
2021/03/23 18:46:23;;;;;;;14.20;8.23;;;3.40;99.90;;;;;;8324583;28;20651;-67
2021/03/23 18:50:26;;;;;;;15.77;8.43;;;3.10;99.90;;;;;;8328379;28;20048;-67
2021/03/23 18:54:27;;;;;;;16.25;8.52;;;2.80;99.90;;;;;;8305651;28;20033;-67
2021/03/23 18:58:28;;;;;;;15.73;8.18;;;2.80;99.90;;;;;;8310209;28;20033;-68
2021/03/23 19:02:28;;;;;;;18.23;8.05;;;2.70;99.90;;;;;;8321367;28;20518;-68
2021/03/23 19:06:29;;;;;;;27.92;12.18;;;2.30;99.90;;;;;;8318751;28;20022;-67
2021/03/23 19:10:32;;;;;;;30.10;13.80;;;2.30;99.90;;;;;;8308752;28;20057;-67
2021/03/23 19:14:33;;;;;;;22.98;10.98;;;2.20;99.90;;;;;;8309056;28;20037;-67
2021/03/23 19:18:33;;;;;;;20.00;10.20;;;1.90;99.90;;;;;;8320696;28;20385;-67
2021/03/23 19:22:34;;;;;;;23.23;10.95;;;1.80;99.90;;;;;;8323487;28;20052;-67
2021/03/23 19:26:35;;;;;;;27.33;12.25;;;1.80;99.90;;;;;;8318670;28;20071;-67
2021/03/23 19:30:37;;;;;;;20.58;10.35;;;1.60;99.90;;;;;;8316400;28;20436;-68
2021/03/23 19:34:38;;;;;;;20.15;10.07;;;1.60;99.90;;;;;;8303059;28;20031;-68
2021/03/23 19:38:39;;;;;;;28.83;15.82;;;1.60;99.90;;;;;;8279886;28;20026;-68
2021/03/23 19:42:40;;;;;;;35.72;17.90;;;1.40;99.90;;;;;;8301051;28;20041;-68
2021/03/23 19:46:40;;;;;;;21.98;11.75;;;1.20;99.90;;;;;;8280007;28;20108;-68
2021/03/23 19:50:42;;;;;;;24.77;11.27;;;1.20;99.90;;;;;;8293077;28;20033;-68
2021/03/23 19:54:42;;;;;;;22.52;11.07;;;1.30;99.90;;;;;;8280418;28;20033;-68
2021/03/23 19:58:43;;;;;;;20.75;10.25;;;1.20;99.90;;;;;;8291958;28;20033;-68
2021/03/23 20:02:44;;;;;;;18.90;10.63;;;1.10;99.90;;;;;;8292544;28;20026;-68
2021/03/23 20:06:44;;;;;;;17.52;9.15;;;1.10;99.90;;;;;;8298515;28;20069;-68
2021/03/23 20:10:46;;;;;;;19.25;9.73;;;0.90;99.90;;;;;;8293156;28;20052;-68
2021/03/23 20:14:47;;;;;;;22.90;11.57;;;0.90;99.90;;;;;;8289270;28;20556;-69
2021/03/23 20:18:47;;;;;;;23.35;11.35;;;0.80;99.90;;;;;;8315264;28;20034;-68
2021/03/23 20:22:48;;;;;;;24.75;11.20;;;0.90;99.90;;;;;;8317076;28;20025;-68
2021/03/23 20:26:48;;;;;;;23.13;11.10;;;0.90;99.90;;;;;;8302382;28;20084;-70
2021/03/23 20:30:49;;;;;;;27.42;13.23;;;1.10;99.90;;;;;;8324521;28;20036;-67
2021/03/23 20:34:50;;;;;;;26.98;12.63;;;0.90;99.90;;;;;;8322559;28;20033;-67
2021/03/23 20:38:50;;;;;;;31.55;15.13;;;0.70;99.90;;;;;;8323271;28;20447;-67
2021/03/23 20:42:53;;;;;;;25.30;12.82;;;0.70;99.90;;;;;;8323038;28;20032;-67
2021/03/23 20:46:53;;;;;;;33.83;15.77;;;0.80;99.90;;;;;;8326064;28;20033;-67
2021/03/23 20:50:54;;;;;;;29.13;14.43;;;0.70;99.90;;;;;;8323350;28;20041;-67
2021/03/23 20:54:55;;;;;;;27.77;15.98;;;0.50;99.90;;;;;;8324798;28;20139;-67
2021/03/23 20:58:56;;;;;;;34.63;15.73;;;0.50;99.90;;;;;;8322950;28;20029;-66
2021/03/23 21:02:58;;;;;;;31.63;15.68;;;0.40;99.90;;;;;;8321647;28;20773;-67
2021/03/23 21:06:58;;;;;;;34.67;14.15;;;0.30;99.90;;;;;;8322189;28;20051;-67